Time;durP1;ratioP1;P1;durP2;ratioP2;P2;SDS_P1;SDS_P2;PMS_P1;PMS_P2;Temp;Humidity;BMP_temperature;BMP_pressure;BME280_temperature;BME280_humidity;BME280_pressure;Samples;Min_cycle;Max_cycle;Signal;HPM_P1;HPM_P2
2021/09/10 00:00:00;;;;;;;38.03;19.67;;;;;;;;;;356991;149;857123;-60
2021/09/10 00:01:02;;;;;;;33.89;20.47;;;;;;;;;;356374;148;859342;-59
2021/09/10 00:02:03;;;;;;;35.51;20.69;;;;;;;;;;356946;148;864916;-59
2021/09/10 00:03:05;;;;;;;31.96;20.01;;;;;;;;;;357673;148;857113;-59
2021/09/10 00:04:07;;;;;;;29.29;19.51;;;;;;;;;;358358;147;857190;-59
2021/09/10 00:05:08;;;;;;;35.56;21.36;;;;;;;;;;357074;147;857276;-59
2021/09/10 00:06:11;;;;;;;34.21;21.11;;;;;;;;;;356929;148;856396;-59
2021/09/10 00:07:13;;;;;;;35.09;20.35;;;;;;;;;;357004;147;857770;-59
2021/09/10 00:08:14;;;;;;;38.91;21.58;;;;;;;;;;356649;150;866283;-60
2021/09/10 00:09:16;;;;;;;37.19;22.08;;;;;;;;;;357050;147;858936;-60
2021/09/10 00:10:18;;;;;;;34.13;21.28;;;;;;;;;;357521;148;857947;-59
2021/09/10 00:11:20;;;;;;;33.41;21.02;;;;;;;;;;358331;149;859484;-60
2021/09/10 00:12:21;;;;;;;31.94;20.34;;;;;;;;;;358435;150;859696;-60
2021/09/10 00:13:23;;;;;;;31.34;21.03;;;;;;;;;;358550;147;859484;-60
2021/09/10 00:14:24;;;;;;;33.03;20.55;;;;;;;;;;356730;147;858738;-60
2021/09/10 00:15:26;;;;;;;36.54;20.75;;;;;;;;;;357105;150;857791;-59
2021/09/10 00:16:29;;;;;;;33.35;20.71;;;;;;;;;;353362;148;864823;-59
2021/09/10 00:17:31;;;;;;;35.44;21.41;;;;;;;;;;358025;149;857157;-59
2021/09/10 00:18:32;;;;;;;33.06;20.96;;;;;;;;;;356496;147;859014;-59
2021/09/10 00:19:34;;;;;;;31.86;20.86;;;;;;;;;;356034;147;857875;-59
2021/09/10 00:20:37;;;;;;;35.28;21.43;;;;;;;;;;356582;148;861039;-60
2021/09/10 00:21:38;;;;;;;37.01;21.81;;;;;;;;;;355810;149;866232;-59
2021/09/10 00:22:40;;;;;;;35.47;21.69;;;;;;;;;;357374;147;858735;-59
2021/09/10 00:23:42;;;;;;;33.41;22.28;;;;;;;;;;358594;150;857205;-59
2021/09/10 00:24:43;;;;;;;36.82;22.37;;;;;;;;;;356540;148;857263;-60
2021/09/10 00:25:45;;;;;;;34.44;20.47;;;;;;;;;;357415;149;857209;-60
2021/09/10 00:26:47;;;;;;;35.47;21.11;;;;;;;;;;358519;149;860655;-59
2021/09/10 00:27:49;;;;;;;35.17;21.51;;;;;;;;;;357466;148;858674;-60
2021/09/10 00:28:50;;;;;;;34.51;20.62;;;;;;;;;;356190;147;857117;-60
2021/09/10 00:29:52;;;;;;;36.37;21.46;;;;;;;;;;357752;147;857242;-60
2021/09/10 00:30:55;;;;;;;36.44;21.79;;;;;;;;;;357458;149;859039;-59
2021/09/10 00:31:57;;;;;;;34.54;20.94;;;;;;;;;;357867;149;857679;-59
2021/09/10 00:32:58;;;;;;;34.27;20.87;;;;;;;;;;355546;149;862405;-59
2021/09/10 00:34:00;;;;;;;36.86;22.09;;;;;;;;;;357871;150;858182;-60
2021/09/10 00:35:03;;;;;;;32.81;20.69;;;;;;;;;;353315;150;857348;-60
2021/09/10 00:36:05;;;;;;;36.59;22.58;;;;;;;;;;357416;148;858900;-60
2021/09/10 00:37:07;;;;;;;33.13;19.84;;;;;;;;;;355763;149;857145;-59
2021/09/10 00:38:09;;;;;;;34.04;20.81;;;;;;;;;;358397;148;859060;-59
2021/09/10 00:39:11;;;;;;;34.39;20.94;;;;;;;;;;357082;148;859779;-59
2021/09/10 00:40:13;;;;;;;38.58;21.29;;;;;;;;;;357745;147;860234;-59
2021/09/10 00:41:15;;;;;;;31.37;21.87;;;;;;;;;;358478;147;859563;-60
2021/09/10 00:42:17;;;;;;;36.26;21.10;;;;;;;;;;345715;155;859447;-60
2021/09/10 00:43:18;;;;;;;41.13;22.75;;;;;;;;;;357157;147;859501;-59
2021/09/10 00:44:20;;;;;;;32.45;21.79;;;;;;;;;;357148;149;857927;-60
2021/09/10 00:45:21;;;;;;;33.81;21.39;;;;;;;;;;355215;147;857326;-60
2021/09/10 00:46:24;;;;;;;33.37;20.79;;;;;;;;;;357096;147;857683;-60
2021/09/10 00:47:25;;;;;;;36.30;20.88;;;;;;;;;;358217;147;857846;-60
2021/09/10 00:48:27;;;;;;;36.72;20.73;;;;;;;;;;353604;147;864696;-60
2021/09/10 00:49:28;;;;;;;35.86;21.48;;;;;;;;;;360897;147;857096;-60
2021/09/10 00:50:31;;;;;;;35.29;21.95;;;;;;;;;;356387;148;858550;-60
2021/09/10 00:51:33;;;;;;;32.51;21.50;;;;;;;;;;356278;149;857390;-59
2021/09/10 00:52:35;;;;;;;38.09;22.43;;;;;;;;;;354655;149;859381;-59
2021/09/10 00:53:36;;;;;;;32.91;21.31;;;;;;;;;;358477;148;858750;-59
2021/09/10 00:54:38;;;;;;;35.81;20.45;;;;;;;;;;357427;147;858991;-60
2021/09/10 00:55:40;;;;;;;36.41;22.52;;;;;;;;;;357766;148;866095;-60
2021/09/10 00:56:42;;;;;;;36.69;20.61;;;;;;;;;;357408;150;864911;-59
2021/09/10 00:57:44;;;;;;;34.95;19.64;;;;;;;;;;357909;147;866595;-59
2021/09/10 00:58:45;;;;;;;34.63;22.34;;;;;;;;;;356791;149;865556;-60
2021/09/10 00:59:47;;;;;;;33.35;21.56;;;;;;;;;;357683;150;860357;-59
2021/09/10 01:00:50;;;;;;;35.14;21.15;;;;;;;;;;357270;149;860404;-60
2021/09/10 01:01:52;;;;;;;33.17;21.76;;;;;;;;;;357423;148;857892;-60
2021/09/10 01:02:54;;;;;;;32.99;21.21;;;;;;;;;;357020;148;860658;-60
2021/09/10 01:03:55;;;;;;;36.91;21.32;;;;;;;;;;356798;150;858643;-60
2021/09/10 01:04:57;;;;;;;36.16;22.69;;;;;;;;;;358621;150;859022;-59
2021/09/10 01:05:58;;;;;;;34.86;21.59;;;;;;;;;;356924;148;865136;-59
2021/09/10 01:07:01;;;;;;;35.79;21.63;;;;;;;;;;357655;149;864935;-59
2021/09/10 01:08:03;;;;;;;32.47;21.02;;;;;;;;;;358262;150;858457;-59
2021/09/10 01:09:04;;;;;;;35.09;21.08;;;;;;;;;;356272;148;857224;-59
2021/09/10 01:10:07;;;;;;;37.39;21.46;;;;;;;;;;357393;147;858854;-60
2021/09/10 01:11:09;;;;;;;32.86;20.99;;;;;;;;;;357959;148;857180;-59
2021/09/10 01:12:10;;;;;;;36.73;21.54;;;;;;;;;;361908;147;856220;-59
2021/09/10 01:13:12;;;;;;;31.97;20.79;;;;;;;;;;355960;148;856376;-59
2021/09/10 01:14:15;;;;;;;33.12;21.23;;;;;;;;;;356984;148;857189;-60
2021/09/10 01:15:17;;;;;;;32.43;21.58;;;;;;;;;;359402;147;857334;-59
2021/09/10 01:16:19;;;;;;;35.77;22.13;;;;;;;;;;357404;148;857251;-59
2021/09/10 01:17:21;;;;;;;38.31;21.99;;;;;;;;;;356287;149;857972;-60
2021/09/10 01:18:23;;;;;;;48.84;23.03;;;;;;;;;;358233;148;859718;-60
2021/09/10 01:19:27;;;;;;;35.90;22.39;;;;;;;;;;357382;150;859225;-60
2021/09/10 01:20:30;;;;;;;34.44;21.19;;;;;;;;;;356568;147;857729;-60
2021/09/10 01:21:31;;;;;;;39.75;22.71;;;;;;;;;;354427;149;857656;-59
2021/09/10 01:22:33;;;;;;;36.02;21.04;;;;;;;;;;349761;150;866784;-59
2021/09/10 01:23:35;;;;;;;37.59;22.86;;;;;;;;;;356407;147;859114;-59
2021/09/10 01:24:37;;;;;;;34.44;22.56;;;;;;;;;;348240;152;865750;-59
2021/09/10 01:25:39;;;;;;;36.76;22.81;;;;;;;;;;354921;147;858485;-60
2021/09/10 01:26:42;;;;;;;35.66;20.87;;;;;;;;;;356612;150;859446;-59
2021/09/10 01:27:51;;;;;;;35.35;22.55;;;;;;;;;;357361;148;859635;-59
2021/09/10 01:28:54;;;;;;;35.65;21.36;;;;;;;;;;356290;149;858350;-59
2021/09/10 01:29:57;;;;;;;41.72;22.41;;;;;;;;;;361067;147;856346;-60
2021/09/10 01:31:00;;;;;;;39.13;23.05;;;;;;;;;;357613;147;859638;-59
2021/09/10 01:32:02;;;;;;;38.14;22.90;;;;;;;;;;358802;147;864685;-59
2021/09/10 01:33:05;;;;;;;41.96;22.81;;;;;;;;;;356924;148;865135;-59
2021/09/10 01:34:07;;;;;;;39.86;22.86;;;;;;;;;;353699;149;858553;-59
2021/09/10 01:35:08;;;;;;;38.48;22.24;;;;;;;;;;355392;148;857192;-59
2021/09/10 01:36:14;;;;;;;43.76;23.36;;;;;;;;;;357927;147;860591;-59
2021/09/10 01:37:14;;;;;;;36.55;22.68;;;;;;;;;;355892;149;858708;-60
2021/09/10 01:38:16;;;;;;;39.33;22.50;;;;;;;;;;356404;147;857443;-60
2021/09/10 01:39:17;;;;;;;38.32;22.01;;;;;;;;;;356884;149;859542;-59
2021/09/10 01:40:21;;;;;;;40.31;23.03;;;;;;;;;;356919;149;857860;-60
2021/09/10 01:41:23;;;;;;;42.59;22.90;;;;;;;;;;355212;150;858212;-58
2021/09/10 01:42:24;;;;;;;39.95;21.86;;;;;;;;;;358215;148;865160;-59
2021/09/10 01:43:26;;;;;;;41.70;23.49;;;;;;;;;;357590;147;857593;-60
2021/09/10 01:44:27;;;;;;;40.18;23.98;;;;;;;;;;356778;150;857605;-59
2021/09/10 01:45:29;;;;;;;42.78;23.86;;;;;;;;;;358871;147;864836;-59
2021/09/10 01:46:31;;;;;;;38.84;24.27;;;;;;;;;;359584;147;857281;-59
2021/09/10 01:47:34;;;;;;;44.42;23.53;;;;;;;;;;354977;149;864779;-59
2021/09/10 01:48:36;;;;;;;39.47;24.56;;;;;;;;;;359432;147;864871;-59
2021/09/10 01:49:37;;;;;;;39.55;22.94;;;;;;;;;;358894;150;857163;-59
2021/09/10 01:50:39;;;;;;;37.57;24.57;;;;;;;;;;357917;147;859685;-59
2021/09/10 01:51:41;;;;;;;39.34;22.28;;;;;;;;;;357900;149;857254;-59
2021/09/10 01:52:42;;;;;;;38.84;23.96;;;;;;;;;;350031;150;866689;-59
2021/09/10 01:53:44;;;;;;;42.10;24.83;;;;;;;;;;356013;148;858445;-59
2021/09/10 01:54:46;;;;;;;37.66;22.59;;;;;;;;;;352488;150;857302;-59
2021/09/10 01:55:48;;;;;;;41.17;23.80;;;;;;;;;;344379;153;860136;-59
2021/09/10 01:56:49;;;;;;;38.86;23.52;;;;;;;;;;358383;150;857384;-59
2021/09/10 01:57:51;;;;;;;38.11;22.44;;;;;;;;;;358226;149;864960;-59
2021/09/10 01:58:52;;;;;;;37.18;23.04;;;;;;;;;;356914;149;857317;-59
2021/09/10 01:59:54;;;;;;;45.79;23.99;;;;;;;;;;354975;147;857350;-60
2021/09/10 02:00:56;;;;;;;38.71;22.93;;;;;;;;;;356729;147;857336;-59
2021/09/10 02:01:57;;;;;;;39.23;22.68;;;;;;;;;;357160;147;857313;-60
2021/09/10 02:02:59;;;;;;;40.87;24.29;;;;;;;;;;357630;150;864759;-59
2021/09/10 02:04:01;;;;;;;39.71;22.66;;;;;;;;;;358032;150;857447;-60
2021/09/10 02:05:03;;;;;;;40.31;24.17;;;;;;;;;;358343;148;860712;-58
2021/09/10 02:06:04;;;;;;;39.61;24.58;;;;;;;;;;357148;147;858333;-59
2021/09/10 02:07:06;;;;;;;37.93;23.59;;;;;;;;;;351264;151;857152;-59
2021/09/10 02:08:08;;;;;;;43.22;22.97;;;;;;;;;;357365;147;865637;-59
2021/09/10 02:09:09;;;;;;;39.14;22.59;;;;;;;;;;358674;147;864966;-59
2021/09/10 02:10:12;;;;;;;41.57;24.00;;;;;;;;;;358217;149;856970;-57
2021/09/10 02:11:13;;;;;;;37.90;23.62;;;;;;;;;;359048;149;857271;-60
2021/09/10 02:12:15;;;;;;;38.19;22.13;;;;;;;;;;357473;148;857339;-58
2021/09/10 02:13:17;;;;;;;35.77;21.79;;;;;;;;;;354834;149;866226;-59
2021/09/10 02:14:19;;;;;;;34.64;22.22;;;;;;;;;;354014;147;858006;-59
2021/09/10 02:15:20;;;;;;;35.70;22.04;;;;;;;;;;356390;148;859043;-60
2021/09/10 02:16:22;;;;;;;35.06;21.41;;;;;;;;;;357924;148;866125;-59
2021/09/10 02:17:24;;;;;;;37.58;23.41;;;;;;;;;;356445;148;857305;-60
2021/09/10 02:18:26;;;;;;;37.67;22.79;;;;;;;;;;356123;147;860777;-60
2021/09/10 02:19:27;;;;;;;44.64;23.19;;;;;;;;;;355033;147;864709;-60
2021/09/10 02:20:30;;;;;;;43.39;22.26;;;;;;;;;;355767;147;857331;-60
2021/09/10 02:21:31;;;;;;;35.43;22.23;;;;;;;;;;357883;149;857232;-60
2021/09/10 02:22:33;;;;;;;38.48;22.13;;;;;;;;;;357625;150;866600;-59
2021/09/10 02:23:34;;;;;;;34.53;22.34;;;;;;;;;;358097;147;857209;-60
2021/09/10 02:24:36;;;;;;;39.29;22.78;;;;;;;;;;356403;147;858963;-59
2021/09/10 02:25:37;;;;;;;36.99;23.34;;;;;;;;;;356763;147;857788;-59
2021/09/10 02:26:40;;;;;;;39.59;23.39;;;;;;;;;;356868;147;857842;-59
2021/09/10 02:27:41;;;;;;;39.65;22.56;;;;;;;;;;356269;149;858159;-61
2021/09/10 02:28:43;;;;;;;38.31;22.86;;;;;;;;;;354198;149;859821;-60
2021/09/10 02:29:44;;;;;;;38.41;23.22;;;;;;;;;;358954;150;858690;-60
2021/09/10 02:30:46;;;;;;;43.31;24.25;;;;;;;;;;349986;151;857103;-60
2021/09/10 02:31:48;;;;;;;33.38;21.59;;;;;;;;;;358335;149;865202;-60
2021/09/10 02:32:49;;;;;;;41.64;22.94;;;;;;;;;;358530;147;864889;-60
2021/09/10 02:33:51;;;;;;;42.65;23.39;;;;;;;;;;356199;148;857841;-60
2021/09/10 02:34:52;;;;;;;38.47;23.37;;;;;;;;;;356392;148;866578;-60
2021/09/10 02:35:55;;;;;;;37.99;23.66;;;;;;;;;;359550;147;856514;-60
2021/09/10 02:36:57;;;;;;;36.75;22.78;;;;;;;;;;357325;150;857286;-60
2021/09/10 02:37:58;;;;;;;38.21;22.33;;;;;;;;;;357301;147;864746;-60
2021/09/10 02:39:01;;;;;;;41.58;23.69;;;;;;;;;;357187;149;862867;-60
2021/09/10 02:40:03;;;;;;;37.45;23.76;;;;;;;;;;357829;149;858777;-60
2021/09/10 02:41:04;;;;;;;40.51;23.30;;;;;;;;;;357612;149;857247;-60
2021/09/10 02:42:06;;;;;;;36.21;21.91;;;;;;;;;;357652;148;857986;-60
2021/09/10 02:59:59;;;;;;;38.18;21.89;;;;;;;10.15;65.18;100327.47;373790;141;875318;-59
2021/09/10 03:01:02;;;;;;;40.24;22.11;;;;;;;10.04;65.00;100332.63;366561;144;858126;-59
2021/09/10 03:02:04;;;;;;;43.50;22.38;;;;;;;10.01;65.04;100330.92;366095;144;856407;-59
2021/09/10 03:03:06;;;;;;;38.89;22.62;;;;;;;9.98;65.15;100330.05;372831;144;856200;-60
2021/09/10 03:04:08;;;;;;;36.45;22.62;;;;;;;9.93;65.22;100328.31;369387;144;863532;-59
2021/09/10 03:05:10;;;;;;;34.68;21.79;;;;;;;9.91;65.31;100329.19;368654;144;863795;-60
2021/09/10 03:06:13;;;;;;;36.39;22.42;;;;;;;;;;369342;144;863553;-60
2021/09/10 03:07:14;;;;;;;38.81;23.94;;;;;;;;;;366595;144;863647;-60
2021/09/10 03:08:16;;;;;;;34.49;22.31;;;;;;;;;;368676;144;856605;-59
2021/09/10 03:09:18;;;;;;;36.47;22.57;;;;;;;;;;367486;144;863781;-59
2021/09/10 03:10:21;;;;;;;39.43;23.04;;;;;;;;;;366442;144;856270;-59
2021/09/10 03:11:23;;;;;;;35.56;21.76;;;;;;;;;;367218;144;856219;-58
2021/09/10 03:12:24;;;;;;;39.61;21.79;;;;;;;;;;368364;144;863969;-59
2021/09/10 03:13:26;;;;;;;37.51;21.61;;;;;;;;;;368757;144;864180;-58
2021/09/10 03:14:27;;;;;;;34.76;21.66;;;;;;;;;;371624;144;856161;-59
2021/09/10 03:15:29;;;;;;;37.09;21.49;;;;;;;;;;366241;144;856485;-59
2021/09/10 03:16:32;;;;;;;33.13;21.26;;;;;;;;;;367302;144;856198;-59
2021/09/10 03:17:34;;;;;;;35.75;21.76;;;;;;;;;;368935;144;856311;-60
2021/09/10 03:20:21;;;;;;;35.95;21.22;;;;;;;9.84;65.89;100324.87;373302;142;882146;-59
2021/09/10 03:21:23;;;;;;;34.20;21.06;;;;;;;9.75;65.97;100325.71;363352;145;857248;-60
2021/09/10 03:22:24;;;;;;;32.79;20.79;;;;;;;9.76;66.02;100322.27;364382;147;865353;-59
2021/09/10 03:23:26;;;;;;;34.84;20.66;;;;;;;9.77;65.98;100327.45;364145;145;866194;-60
2021/09/10 03:24:28;;;;;;;33.26;20.91;;;;;;;9.81;65.85;100327.45;365687;145;864611;-59
2021/09/10 03:25:30;;;;;;;35.79;21.69;;;;;;;9.81;65.73;100322.28;364398;147;866816;-59
2021/09/10 03:26:32;;;;;;;36.87;21.13;;;;;;;9.81;65.73;100322.28;365026;146;864701;-60
2021/09/10 03:27:35;;;;;;;40.48;23.03;;;;;;;9.77;65.62;100324.87;365022;146;858837;-60
2021/09/10 03:28:37;;;;;;;35.98;21.38;;;;;;;9.76;65.74;100328.31;361694;147;858933;-60
2021/09/10 03:29:39;;;;;;;33.20;21.67;;;;;;;9.76;65.70;100320.55;362545;145;865083;-59
2021/09/10 03:30:41;;;;;;;38.10;22.55;;;;;;;9.77;65.65;100327.45;364421;146;857132;-59
2021/09/10 03:31:43;;;;;;;38.11;22.29;;;;;;;9.78;65.57;100324.01;367508;146;864819;-59
2021/09/10 03:32:45;;;;;;;33.96;20.73;;;;;;;9.78;65.60;100325.72;366412;146;864785;-58
2021/09/10 03:33:47;;;;;;;33.27;20.98;;;;;;;9.76;65.64;100325.73;364586;146;865033;-59
2021/09/10 03:34:49;;;;;;;38.64;22.39;;;;;;;9.75;65.66;100329.17;363493;146;857749;-59
2021/09/10 03:35:51;;;;;;;37.53;23.39;;;;;;;9.74;65.57;100332.63;363281;146;865232;-59
2021/09/10 03:36:54;;;;;;;34.86;22.52;;;;;;;9.72;65.56;100330.88;364135;147;857439;-60
2021/09/10 03:37:56;;;;;;;38.29;21.88;;;;;;;9.70;65.68;100327.42;361914;146;857250;-59
2021/09/10 03:38:58;;;;;;;37.53;21.97;;;;;;;9.67;65.80;100322.25;361578;147;864795;-59
2021/09/10 03:39:59;;;;;;;39.13;21.84;;;;;;;9.65;65.88;100332.61;360655;148;857252;-59
2021/09/10 03:41:01;;;;;;;37.24;22.54;;;;;;;9.64;65.89;100326.55;359147;148;866457;-59
2021/09/10 03:42:03;;;;;;;35.07;21.48;;;;;;;9.65;65.99;100332.61;361447;148;864909;-59
2021/09/10 03:43:06;;;;;;;37.31;22.57;;;;;;;9.66;65.97;100329.16;362451;148;856448;-60
2021/09/10 03:44:08;;;;;;;39.04;23.29;;;;;;;9.69;65.94;100333.45;353883;151;857152;-59
2021/09/10 03:45:10;;;;;;;33.73;22.01;;;;;;;9.69;65.92;100324.00;349627;151;865647;-60
2021/09/10 03:46:12;;;;;;;39.00;23.54;;;;;;;9.71;65.84;100323.98;351772;150;866666;-59
2021/09/10 03:47:14;;;;;;;35.58;22.01;;;;;;;9.72;65.78;100331.75;362519;148;866580;-59
2021/09/10 03:48:15;;;;;;;36.11;21.45;;;;;;;9.72;65.82;100334.34;359217;148;866242;-59
2021/09/10 03:49:17;;;;;;;38.95;22.85;;;;;;;9.72;65.89;100342.10;359636;147;864883;-59
2021/09/10 03:50:20;;;;;;;36.34;22.31;;;;;;;9.71;65.86;100327.45;359318;148;857223;-62
2021/09/10 03:51:22;;;;;;;39.65;22.08;;;;;;;9.72;65.91;100349.86;357287;148;860017;-60
2021/09/10 03:52:24;;;;;;;35.77;22.41;;;;;;;9.71;65.91;100335.20;360973;147;857272;-58
2021/09/10 03:53:25;;;;;;;38.69;21.12;;;;;;;9.71;66.04;100339.50;359909;147;857281;-59
2021/09/10 03:54:27;;;;;;;34.96;21.83;;;;;;;9.71;66.15;100345.55;359784;147;864871;-59
2021/09/10 03:55:29;;;;;;;34.88;22.27;;;;;;;9.72;66.16;100338.63;361717;148;864643;-59
2021/09/10 03:56:32;;;;;;;35.15;22.31;;;;;;;9.72;66.12;100331.75;359894;147;864697;-58
2021/09/10 03:57:34;;;;;;;36.75;21.07;;;;;;;9.75;66.10;100346.40;362507;145;858942;-59
2021/09/10 03:58:36;;;;;;;37.21;21.79;;;;;;;9.78;66.16;100341.23;362848;148;857154;-59
2021/09/10 03:59:37;;;;;;;33.89;21.50;;;;;;;9.81;66.12;100341.23;361528;148;864776;-59
2021/09/10 04:00:40;;;;;;;39.90;23.03;;;;;;;;;;360749;147;865609;-59
2021/09/10 04:01:41;;;;;;;36.61;22.81;;;;;;;;;;361882;148;857189;-59
2021/09/10 04:02:43;;;;;;;43.99;22.74;;;;;;;;;;361246;148;865362;-59
2021/09/10 04:03:45;;;;;;;37.55;22.10;;;;;;;;;;361232;148;864973;-60
2021/09/10 04:04:47;;;;;;;42.13;22.75;;;;;;;;;;361536;147;858845;-59
2021/09/10 04:05:48;;;;;;;35.36;22.81;;;;;;;;;;363163;148;857292;-58
2021/09/10 04:06:50;;;;;;;39.09;22.51;;;;;;;;;;359976;148;857394;-60
2021/09/10 04:07:52;;;;;;;37.49;22.16;;;;;;;;;;361623;147;857454;-59
2021/09/10 04:08:53;;;;;;;38.70;23.35;;;;;;;;;;361543;148;856368;-59
2021/09/10 04:09:55;;;;;;;44.78;23.06;;;;;;;;;;360209;148;856315;-60
2021/09/10 04:10:57;;;;;;;37.65;22.48;;;;;;;;;;361675;148;857255;-58
2021/09/10 04:11:58;;;;;;;39.78;23.11;;;;;;;;;;360353;147;857295;-58
2021/09/10 04:13:00;;;;;;;40.16;23.84;;;;;;;;;;361135;148;865575;-58
2021/09/10 04:14:01;;;;;;;37.25;23.39;;;;;;;;;;360959;147;858071;-58
2021/09/10 04:15:04;;;;;;;40.63;23.77;;;;;;;;;;362377;147;859422;-58
2021/09/10 04:16:06;;;;;;;39.16;23.21;;;;;;;;;;360051;147;864317;-57
2021/09/10 04:17:07;;;;;;;43.61;22.86;;;;;;;;;;361429;148;865697;-58
2021/09/10 04:18:09;;;;;;;39.20;22.69;;;;;;;;;;362076;147;857841;-60
2021/09/10 04:19:10;;;;;;;40.70;23.51;;;;;;;;;;361506;147;865575;-62
2021/09/10 04:20:13;;;;;;;45.79;24.41;;;;;;;;;;361939;148;857577;-61
2021/09/10 04:21:14;;;;;;;37.06;23.19;;;;;;;;;;361227;147;857768;-62
2021/09/10 04:22:16;;;;;;;37.61;23.86;;;;;;;;;;363127;147;856460;-61
2021/09/10 04:23:17;;;;;;;38.33;23.61;;;;;;;;;;363568;148;857630;-62
2021/09/10 04:24:19;;;;;;;39.09;23.91;;;;;;;;;;359755;148;858873;-62
2021/09/10 04:25:21;;;;;;;37.14;23.61;;;;;;;;;;353838;150;858204;-62
2021/09/10 04:26:23;;;;;;;42.90;24.26;;;;;;;;;;361340;147;857354;-60
2021/09/10 04:27:24;;;;;;;46.05;24.91;;;;;;;;;;360126;148;858743;-61
2021/09/10 04:28:26;;;;;;;38.39;24.06;;;;;;;;;;362016;148;860106;-60
2021/09/10 04:29:27;;;;;;;38.85;23.14;;;;;;;;;;360681;147;857480;-60
2021/09/10 04:30:30;;;;;;;39.02;23.49;;;;;;;;;;359651;147;857173;-60
2021/09/10 04:31:31;;;;;;;43.29;24.91;;;;;;;;;;362249;148;864747;-59
2021/09/10 04:32:33;;;;;;;41.77;24.60;;;;;;;;;;360481;148;857252;-61
2021/09/10 04:33:35;;;;;;;41.23;23.84;;;;;;;;;;362196;147;857734;-61
2021/09/10 04:34:36;;;;;;;35.00;23.32;;;;;;;;;;362120;147;857241;-60
2021/09/10 04:35:38;;;;;;;36.76;22.98;;;;;;;;;;363646;148;858993;-59
2021/09/10 04:36:41;;;;;;;38.00;25.04;;;;;;;;;;360269;148;858562;-62
2021/09/10 04:37:43;;;;;;;37.89;23.19;;;;;;;;;;361320;147;858981;-62
2021/09/10 04:38:45;;;;;;;40.36;23.82;;;;;;;;;;361992;148;858804;-59
2021/09/10 04:39:46;;;;;;;44.69;24.92;;;;;;;;;;361111;148;858267;-59
2021/09/10 04:40:50;;;;;;;40.98;24.87;;;;;;;;;;353089;150;866428;-59
2021/09/10 04:59:52;;;;;;;35.52;20.46;;;;;;;12.41;67.22;100329.09;374836;141;879505;-58
2021/09/10 05:00:54;;;;;;;32.62;19.49;;;;;;;12.39;67.09;100335.20;366741;144;858252;-61
2021/09/10 05:01:56;;;;;;;37.11;21.35;;;;;;;12.45;67.08;100334.27;367010;144;856448;-60
2021/09/10 05:02:59;;;;;;;35.56;20.74;;;;;;;12.51;66.96;100339.39;366334;144;857224;-61
2021/09/10 05:04:01;;;;;;;36.29;20.73;;;;;;;12.55;66.88;100336.77;363859;146;865399;-60
2021/09/10 05:05:04;;;;;;;41.46;21.96;;;;;;;12.61;66.92;100330.63;364426;145;857226;-61
2021/09/10 05:06:08;;;;;;;39.54;22.16;;;;;;;12.66;66.96;100334.05;367739;144;864805;-61
2021/09/10 05:07:09;;;;;;;36.91;20.12;;;;;;;12.73;66.83;100332.26;366773;144;860814;-61
2021/09/10 05:08:11;;;;;;;34.21;20.24;;;;;;;12.80;66.85;100339.11;367105;144;858896;-61
2021/09/10 05:09:13;;;;;;;36.29;21.06;;;;;;;12.87;66.83;100332.13;366087;144;866373;-63
2021/09/10 05:10:15;;;;;;;36.69;20.49;;;;;;;12.93;66.81;100333.77;366223;144;864721;-60
2021/09/10 05:11:17;;;;;;;34.18;22.24;;;;;;;12.98;66.65;100332.86;368377;144;857228;-62
2021/09/10 05:12:19;;;;;;;34.99;21.49;;;;;;;13.04;66.64;100328.47;367260;144;864678;-66
2021/09/10 05:13:20;;;;;;;36.89;20.90;;;;;;;13.10;66.66;100331.83;366719;144;864433;-60
2021/09/10 05:14:22;;;;;;;37.60;21.01;;;;;;;13.16;66.63;100333.52;367120;144;865480;-60
2021/09/10 05:15:24;;;;;;;32.91;20.82;;;;;;;13.23;66.49;100335.16;367339;144;865606;-61
2021/09/10 05:16:26;;;;;;;32.97;20.62;;;;;;;13.30;66.33;100333.34;367091;144;864678;-61
2021/09/10 05:17:28;;;;;;;37.11;21.42;;;;;;;13.38;66.03;100333.23;366788;144;858717;-60
2021/09/10 05:18:30;;;;;;;34.01;21.01;;;;;;;13.43;65.94;100334.94;363772;144;866395;-60
2021/09/10 05:19:32;;;;;;;33.44;20.03;;;;;;;13.50;66.06;100330.49;364567;147;858815;-61
2021/09/10 05:20:34;;;;;;;30.47;18.97;;;;;;;13.57;65.74;100336.48;365092;147;865103;-60
2021/09/10 05:21:36;;;;;;;32.69;19.68;;;;;;;13.59;65.49;100332.97;361744;144;857329;-60
2021/09/10 05:22:38;;;;;;;33.73;18.38;;;;;;;13.63;65.42;100333.80;361595;146;857300;-61
2021/09/10 05:23:40;;;;;;;33.34;20.16;;;;;;;13.68;65.24;100334.59;360893;147;857156;-61
2021/09/10 05:24:42;;;;;;;33.44;20.34;;;;;;;13.72;65.49;100327.58;361571;145;857429;-61
2021/09/10 05:25:43;;;;;;;33.04;19.30;;;;;;;;;;360899;146;864969;-61
2021/09/10 05:26:45;;;;;;;41.74;20.47;;;;;;;;;;363142;145;865052;-61
2021/09/10 05:27:47;;;;;;;36.97;19.39;;;;;;;;;;362787;148;857480;-61
2021/09/10 05:28:48;;;;;;;34.16;19.94;;;;;;;;;;363376;144;857242;-61
2021/09/10 05:29:50;;;;;;;32.80;19.50;;;;;;;;;;363958;145;857366;-61
2021/09/10 05:30:52;;;;;;;35.22;19.21;;;;;;;;;;360913;145;856404;-61
2021/09/10 05:31:53;;;;;;;33.31;19.46;;;;;;;;;;361070;145;857355;-61
2021/09/10 05:32:55;;;;;;;38.06;19.64;;;;;;;;;;362746;144;857423;-61
2021/09/10 05:33:56;;;;;;;30.31;19.21;;;;;;;;;;363461;144;858962;-60
2021/09/10 05:34:58;;;;;;;32.40;19.51;;;;;;;;;;362163;144;856316;-60
2021/09/10 05:36:00;;;;;;;31.61;19.68;;;;;;;;;;362800;145;865496;-61
2021/09/10 05:37:01;;;;;;;34.11;19.70;;;;;;;;;;363494;146;856210;-60
2021/09/10 05:38:03;;;;;;;34.56;19.11;;;;;;;;;;363346;146;863860;-60
2021/09/10 05:39:05;;;;;;;35.20;18.16;;;;;;;;;;364134;144;857077;-59
2021/09/10 05:40:07;;;;;;;34.70;19.46;;;;;;;;;;363120;144;856075;-60
2021/09/10 05:41:09;;;;;;;29.74;18.67;;;;;;;;;;364541;145;863670;-61
2021/09/10 05:42:10;;;;;;;31.87;18.73;;;;;;;;;;364352;145;856096;-61
2021/09/10 05:43:12;;;;;;;29.49;19.36;;;;;;;;;;364067;145;856419;-61
2021/09/10 05:44:14;;;;;;;30.40;18.95;;;;;;;;;;362442;145;856773;-61
2021/09/10 05:45:15;;;;;;;30.71;18.43;;;;;;;;;;365108;145;856751;-61
2021/09/10 05:46:17;;;;;;;30.43;19.29;;;;;;;;;;363471;145;856978;-60
2021/09/10 05:47:19;;;;;;;31.29;18.36;;;;;;;;;;363083;145;856078;-61
2021/09/10 05:48:20;;;;;;;31.82;18.51;;;;;;;;;;363601;146;856202;-61
2021/09/10 05:49:22;;;;;;;35.09;19.00;;;;;;;;;;363215;144;856222;-61
2021/09/10 05:50:25;;;;;;;37.44;18.73;;;;;;;;;;361344;145;856550;-62
2021/09/10 05:51:26;;;;;;;38.96;18.25;;;;;;;;;;361025;144;863833;-61
2021/09/10 05:52:28;;;;;;;34.96;18.65;;;;;;;;;;363532;145;856704;-61
2021/09/10 05:53:30;;;;;;;30.50;17.85;;;;;;;;;;361466;148;856401;-60
2021/09/10 05:54:32;;;;;;;32.91;17.49;;;;;;;;;;364927;144;856234;-61
2021/09/10 05:55:33;;;;;;;29.39;18.30;;;;;;;;;;363117;144;856571;-60
2021/09/10 05:56:37;;;;;;;31.34;17.64;;;;;;;;;;366527;145;857019;-61
2021/09/10 05:57:38;;;;;;;31.49;17.56;;;;;;;;;;365122;145;856039;-61
2021/09/10 05:58:40;;;;;;;28.76;17.64;;;;;;;;;;361261;145;863742;-61
2021/09/10 05:59:41;;;;;;;28.09;17.36;;;;;;;;;;362221;145;863910;-61
2021/09/10 06:00:44;;;;;;;43.31;18.16;;;;;;;;;;362095;144;856202;-61
2021/09/10 06:01:45;;;;;;;34.25;17.99;;;;;;;;;;363812;144;856439;-60
2021/09/10 06:02:47;;;;;;;29.61;17.03;;;;;;;;;;361497;145;856254;-62
2021/09/10 06:03:49;;;;;;;27.20;16.96;;;;;;;;;;362376;145;856311;-61
2021/09/10 06:04:50;;;;;;;27.81;16.09;;;;;;;;;;363728;146;856383;-62
2021/09/10 06:05:52;;;;;;;29.51;17.49;;;;;;;;;;361231;144;856442;-64
2021/09/10 06:06:55;;;;;;;27.65;16.46;;;;;;;;;;361815;144;856233;-63
2021/09/10 06:07:56;;;;;;;30.62;16.56;;;;;;;;;;362837;147;856225;-64
2021/09/10 06:08:58;;;;;;;28.34;16.54;;;;;;;;;;360375;144;863951;-63
2021/09/10 06:10:00;;;;;;;27.73;16.34;;;;;;;;;;362839;145;856714;-61
2021/09/10 06:11:01;;;;;;;28.85;16.27;;;;;;;;;;363294;145;856553;-61
2021/09/10 06:12:05;;;;;;;28.26;14.86;;;;;;;;;;361699;145;863819;-62